createdAt,value
2022-11-15T00:01:39.580Z,96478.94
2022-11-15T00:04:26.348Z,96476.52
2022-11-15T00:07:33.276Z,96476.77
2022-11-15T00:10:19.492Z,96473.20
2022-11-15T00:13:12.380Z,96469.75
2022-11-15T00:16:00.912Z,96468.73
2022-11-15T00:18:50.651Z,96468.41
2022-11-15T00:21:37.699Z,96467.35
2022-11-15T00:24:24.251Z,96462.95
2022-11-15T00:27:10.882Z,96461.17
2022-11-15T00:29:57.518Z,96454.20
2022-11-15T00:32:44.158Z,96453.45
2022-11-15T00:35:33.953Z,96453.23
2022-11-15T00:38:20.604Z,96449.71
2022-11-15T00:41:09.887Z,96448.60
2022-11-15T00:43:56.665Z,96446.14
2022-11-15T00:46:43.195Z,96440.86
2022-11-15T00:49:29.987Z,96437.92
2022-11-15T00:52:16.582Z,96438.71
2022-11-15T00:55:03.337Z,96439.46
2022-11-15T00:57:49.946Z,96440.23
2022-11-15T01:00:36.836Z,96440.18
2022-11-15T01:03:23.501Z,96441.23
2022-11-15T01:06:11.151Z,96433.52
2022-11-15T01:08:57.980Z,96433.27
2022-11-15T01:12:02.544Z,96430.60
2022-11-15T01:14:48.966Z,96425.59
2022-11-15T01:17:35.780Z,96424.00
2022-11-15T01:20:22.431Z,96424.09
2022-11-15T01:23:09.467Z,96418.13
2022-11-15T01:26:01.374Z,96412.77
2022-11-15T01:28:48.118Z,96407.92
2022-11-15T01:31:34.675Z,96404.35
2022-11-15T01:34:21.313Z,96404.70
2022-11-15T01:37:07.944Z,96399.88
2022-11-15T01:39:54.626Z,96394.52
2022-11-15T01:42:41.404Z,96391.15
2022-11-15T01:45:28.040Z,96386.45
2022-11-15T01:48:14.956Z,96380.20
2022-11-15T01:51:07.852Z,96378.84
2022-11-15T01:54:00.118Z,96379.30
2022-11-15T01:56:53.325Z,96379.71
2022-11-15T01:59:43.175Z,96377.80
2022-11-15T02:02:30.016Z,96372.55
2022-11-15T02:05:16.655Z,96369.46
2022-11-15T02:08:03.099Z,96365.02
2022-11-15T02:10:49.842Z,96363.65
2022-11-15T02:13:37.854Z,96364.50
2022-11-15T02:16:40.879Z,96362.15
2022-11-15T02:19:33.467Z,96363.88
2022-11-15T02:22:32.232Z,96363.59
2022-11-15T02:25:56.542Z,96363.20
2022-11-15T02:28:45.856Z,96366.08
2022-11-15T02:32:04.362Z,96369.84
2022-11-15T02:35:25.293Z,96373.27
2022-11-15T02:38:21.010Z,96372.52
2022-11-15T02:41:12.535Z,96372.23
2022-11-15T02:44:09.168Z,96374.04
2022-11-15T02:47:15.055Z,96367.42
2022-11-15T02:50:09.305Z,96363.98
2022-11-15T02:52:56.773Z,96366.17
2022-11-15T02:55:48.461Z,96368.86
2022-11-15T02:58:50.140Z,96366.30
2022-11-15T03:02:28.108Z,96367.17
2022-11-15T03:05:39.883Z,96365.03
2022-11-15T03:08:48.947Z,96371.35
2022-11-15T03:11:42.498Z,96376.67
2022-11-15T03:14:36.056Z,96376.29
2022-11-15T03:17:34.039Z,96374.67
2022-11-15T03:20:21.047Z,96370.52
2022-11-15T03:23:11.285Z,96369.30
2022-11-15T03:26:00.536Z,96370.51
2022-11-15T03:28:53.455Z,96370.38
2022-11-15T03:31:50.337Z,96361.49
2022-11-15T03:34:52.837Z,96358.89
2022-11-15T03:38:04.462Z,96356.09
2022-11-15T03:41:05.136Z,96357.50
2022-11-15T03:44:01.095Z,96351.95
2022-11-15T03:47:05.527Z,96345.78
2022-11-15T03:50:02.251Z,96344.88
2022-11-15T03:52:50.535Z,96347.95
2022-11-15T03:55:36.817Z,96344.00
2022-11-15T03:58:23.650Z,96337.84
2022-11-15T04:01:10.688Z,96330.84
2022-11-15T04:03:57.373Z,96327.08
2022-11-15T04:06:44.042Z,96326.54
2022-11-15T04:09:30.645Z,96325.78
2022-11-15T04:12:31.754Z,96325.84
2022-11-15T04:15:20.914Z,96324.02
2022-11-15T04:18:07.336Z,96324.85
2022-11-15T04:21:12.701Z,96323.16
2022-11-15T04:24:14.146Z,96325.61
2022-11-15T04:27:01.468Z,96327.92
2022-11-15T04:29:47.908Z,96327.64
2022-11-15T04:32:34.591Z,96326.17
2022-11-15T04:35:21.120Z,96324.11
2022-11-15T04:38:10.014Z,96321.50
2022-11-15T04:40:56.363Z,96322.05
2022-11-15T04:43:42.830Z,96321.45
2022-11-15T04:46:30.851Z,96317.38
2022-11-15T04:49:17.521Z,96320.52
2022-11-15T04:52:04.338Z,96316.91
2022-11-15T04:54:51.054Z,96312.91
2022-11-15T04:57:38.639Z,96312.20
2022-11-15T05:00:25.045Z,96314.92
2022-11-15T05:03:30.770Z,96313.73
2022-11-15T05:06:17.695Z,96316.56
2022-11-15T05:09:04.591Z,96314.10
2022-11-15T05:11:51.167Z,96312.38
2022-11-15T05:14:37.454Z,96318.23
2022-11-15T05:17:23.939Z,96313.40
2022-11-15T05:20:11.326Z,96315.60
2022-11-15T05:22:57.909Z,96309.59
2022-11-15T05:25:44.548Z,96305.86
2022-11-15T05:28:32.053Z,96309.02
2022-11-15T05:31:18.480Z,96312.52
2022-11-15T05:34:06.285Z,96315.27
2022-11-15T05:36:52.928Z,96315.03
2022-11-15T05:39:39.619Z,96315.42
2022-11-15T05:42:28.672Z,96319.02
2022-11-15T05:45:15.694Z,96317.02
2022-11-15T05:48:04.949Z,96313.33
2022-11-15T05:50:51.499Z,96308.05
2022-11-15T05:53:38.420Z,96308.23
2022-11-15T05:56:26.262Z,96311.30
2022-11-15T05:59:13.018Z,96315.92
2022-11-15T06:02:00.207Z,96319.16
2022-11-15T06:04:46.755Z,96313.70
2022-11-15T06:07:33.416Z,96308.98
2022-11-15T06:10:20.019Z,96303.39
2022-11-15T06:13:06.606Z,96302.77
2022-11-15T06:15:57.462Z,96305.52
2022-11-15T06:18:44.086Z,96311.17
2022-11-15T06:21:30.988Z,96312.02
2022-11-15T06:24:17.632Z,96312.70
2022-11-15T06:27:04.529Z,96311.86
2022-11-15T06:29:50.890Z,96314.20
2022-11-15T06:32:37.658Z,96314.76
2022-11-15T06:35:24.323Z,96316.70
2022-11-15T06:38:12.136Z,96314.14
2022-11-15T06:41:03.856Z,96310.44
2022-11-15T06:43:50.417Z,96306.64
2022-11-15T06:46:37.194Z,96310.48
2022-11-15T06:49:23.948Z,96313.25
2022-11-15T06:52:10.573Z,96311.89
2022-11-15T06:54:57.255Z,96312.90
2022-11-15T06:57:53.473Z,96312.81
2022-11-15T07:00:42.428Z,96307.42
2022-11-15T07:03:29.850Z,96299.58
2022-11-15T07:06:17.075Z,96298.40
2022-11-15T07:09:04.412Z,96291.80
2022-11-15T07:11:50.841Z,96288.08
2022-11-15T07:14:37.676Z,96289.09
2022-11-15T07:17:24.031Z,96287.77
2022-11-15T07:20:11.933Z,96287.96
2022-11-15T07:23:03.081Z,96285.11
2022-11-15T07:25:50.356Z,96286.23
2022-11-15T07:28:37.437Z,96284.98
2022-11-15T07:31:24.590Z,96285.88
2022-11-15T07:34:11.318Z,96289.20
2022-11-15T07:36:57.858Z,96289.66
2022-11-15T07:39:45.123Z,96290.05
2022-11-15T07:42:53.237Z,96287.34
2022-11-15T07:45:43.842Z,96287.27
2022-11-15T07:48:42.858Z,96288.65
2022-11-15T07:51:30.906Z,96286.11
2022-11-15T07:54:17.705Z,96288.38
2022-11-15T07:57:07.513Z,96289.63
2022-11-15T07:59:54.852Z,96285.48
2022-11-15T08:02:41.382Z,96283.99
2022-11-15T08:05:28.386Z,96284.40
2022-11-15T08:08:15.245Z,96285.02
2022-11-15T08:11:01.997Z,96276.88
2022-11-15T08:13:48.410Z,96274.81
2022-11-15T08:16:35.271Z,96271.75
2022-11-15T08:19:21.744Z,96267.02
2022-11-15T08:22:09.010Z,96263.78
2022-11-15T08:24:55.399Z,96259.09
2022-11-15T08:27:41.695Z,96257.27
2022-11-15T08:30:29.246Z,96258.59
2022-11-15T08:33:15.897Z,96257.05
2022-11-15T08:36:03.199Z,96245.93
2022-11-15T08:38:49.693Z,96240.05
2022-11-15T08:41:39.026Z,96242.89
2022-11-15T08:44:25.487Z,96241.59
2022-11-15T08:47:13.133Z,96240.83
2022-11-15T08:49:59.631Z,96242.20
2022-11-15T08:52:46.098Z,96242.73
2022-11-15T08:55:32.855Z,96241.05
2022-11-15T08:58:19.286Z,96235.26
2022-11-15T09:01:06.451Z,96229.42
2022-11-15T09:03:53.748Z,96222.98
2022-11-15T09:06:43.188Z,96221.73
2022-11-15T09:09:29.962Z,96223.61
2022-11-15T09:12:16.378Z,96220.07
2022-11-15T09:15:03.959Z,96218.57
2022-11-15T09:17:50.329Z,96220.85
2022-11-15T09:20:36.825Z,96220.05
2022-11-15T09:23:23.869Z,96210.90
2022-11-15T09:26:10.278Z,96204.07
2022-11-15T09:28:56.951Z,96202.77
2022-11-15T09:31:43.873Z,96202.38
2022-11-15T09:34:30.268Z,96191.61
2022-11-15T09:37:17.012Z,96190.27
2022-11-15T09:40:04.321Z,96190.23
2022-11-15T09:43:12.918Z,96183.64
2022-11-15T09:46:05.097Z,96179.75
2022-11-15T09:48:58.779Z,96178.98
2022-11-15T09:51:54.387Z,96169.11
2022-11-15T09:57:35.972Z,96159.14
2022-11-15T10:00:45.442Z,96159.15
2022-11-15T10:03:18.394Z,96150.27
2022-11-15T10:05:52.914Z,96148.09
2022-11-15T10:08:40.032Z,96146.25
2022-11-15T10:14:14.525Z,96142.96
2022-11-15T10:16:53.539Z,96140.55
2022-11-15T10:19:33.381Z,96140.36
2022-11-15T10:22:04.356Z,96139.05
2022-11-15T10:24:38.311Z,96132.73
2022-11-15T10:27:12.934Z,96124.31
2022-11-15T10:29:49.096Z,96122.30
2022-11-15T10:32:20.254Z,96117.53
2022-11-15T10:34:50.734Z,96111.38
2022-11-15T10:37:33.120Z,96106.86
2022-11-15T10:40:17.883Z,96100.95
2022-11-15T10:42:46.528Z,96103.52
2022-11-15T10:45:30.793Z,96106.27
2022-11-15T10:48:14.127Z,96097.77
2022-11-15T10:50:44.949Z,96093.09
2022-11-15T10:53:19.087Z,96091.46
2022-11-15T10:55:49.554Z,96094.73
2022-11-15T10:58:36.096Z,96094.04
2022-11-15T11:01:17.132Z,96089.42
2022-11-15T11:04:00.225Z,96086.60
2022-11-15T11:06:28.791Z,96082.04
2022-11-15T11:09:02.777Z,96075.60
2022-11-15T11:11:47.197Z,96070.55
2022-11-15T11:14:32.048Z,96067.15
2022-11-15T11:17:06.276Z,96065.59
2022-11-15T11:19:46.139Z,96062.14
2022-11-15T11:22:37.002Z,96056.33
2022-11-15T11:25:32.638Z,96045.55
2022-11-15T11:28:15.971Z,96041.45
2022-11-15T11:31:08.986Z,96039.53
2022-11-15T11:34:03.954Z,96033.07
2022-11-15T11:36:50.459Z,96024.06
2022-11-15T11:39:46.138Z,96022.06
2022-11-15T11:42:36.123Z,96014.52
2022-11-15T11:45:25.570Z,96011.26
2022-11-15T11:48:08.675Z,96009.20
2022-11-15T11:50:39.111Z,96003.52
2022-11-15T11:53:12.344Z,95995.02
2022-11-15T11:55:45.794Z,95988.40
2022-11-15T11:58:27.740Z,95988.54
2022-11-15T12:01:01.332Z,95986.61
2022-11-15T12:03:39.403Z,95979.35
2022-11-15T12:06:45.138Z,95974.99
2022-11-15T12:09:31.361Z,95975.17
2022-11-15T12:12:23.323Z,95971.73
2022-11-15T12:15:09.683Z,95969.73
2022-11-15T12:17:41.124Z,95970.08
2022-11-15T12:20:25.102Z,95975.35
2022-11-15T12:23:04.910Z,95978.60
2022-11-15T12:25:44.034Z,95971.94
2022-11-15T12:28:38.385Z,95966.74
2022-11-15T12:31:22.133Z,95963.95
2022-11-15T12:33:50.940Z,95961.29
2022-11-15T12:36:22.057Z,95960.24
2022-11-15T12:38:52.745Z,95964.10
2022-11-15T12:41:22.274Z,95964.73
2022-11-15T12:43:51.169Z,95961.55
2022-11-15T12:46:49.479Z,95952.98
2022-11-15T12:49:26.506Z,95950.61
2022-11-15T12:52:00.719Z,95953.33
2022-11-15T12:54:30.459Z,95949.98
2022-11-15T12:57:04.149Z,95944.89
2022-11-15T13:00:00.549Z,95944.59
2022-11-15T13:02:44.620Z,95943.10
2022-11-15T13:05:16.101Z,95945.21
2022-11-15T13:07:44.184Z,95942.95
2022-11-15T13:10:15.019Z,95939.41
2022-11-15T13:12:45.681Z,95938.16
2022-11-15T13:15:13.983Z,95935.88
2022-11-15T13:17:56.194Z,95932.07
2022-11-15T13:20:28.418Z,95931.11
2022-11-15T13:23:05.691Z,95929.22
2022-11-15T13:25:36.767Z,95932.59
2022-11-15T13:28:16.713Z,95931.17
2022-11-15T13:30:47.761Z,95926.20
2022-11-15T13:33:19.229Z,95918.01
2022-11-15T13:35:53.931Z,95919.45
2022-11-15T13:38:35.041Z,95913.81
2022-11-15T13:41:34.071Z,95905.18
2022-11-15T13:44:03.506Z,95901.85
2022-11-15T13:46:36.214Z,95903.11
2022-11-15T13:49:14.022Z,95902.86
2022-11-15T13:51:52.051Z,95901.23
2022-11-15T13:54:38.683Z,95894.41
2022-11-15T13:57:14.195Z,95885.55
2022-11-15T14:00:31.092Z,95888.79
2022-11-15T14:03:08.347Z,95896.85
2022-11-15T14:05:36.628Z,95897.94
2022-11-15T14:08:14.143Z,95895.28
2022-11-15T14:10:42.336Z,95890.81
2022-11-15T14:13:29.544Z,95888.32
2022-11-15T14:16:37.825Z,95889.80
2022-11-15T14:19:07.511Z,95890.89
2022-11-15T14:21:35.488Z,95890.09
2022-11-15T14:24:22.297Z,95881.81
2022-11-15T14:26:50.273Z,95878.02
2022-11-15T14:29:29.495Z,95878.30
2022-11-15T14:32:15.564Z,95884.27
2022-11-15T14:34:44.580Z,95880.41
2022-11-15T14:37:24.678Z,95876.34
2022-11-15T14:39:53.746Z,95872.84
2022-11-15T14:42:23.708Z,95876.78
2022-11-15T14:44:52.461Z,95876.26
2022-11-15T14:47:20.587Z,95873.71
2022-11-15T14:49:48.649Z,95868.92
2022-11-15T14:52:32.168Z,95864.52
2022-11-15T14:55:03.489Z,95862.67
2022-11-15T14:57:32.015Z,95859.04
2022-11-15T14:59:59.956Z,95860.65
2022-11-15T15:02:42.586Z,95857.52
2022-11-15T15:05:22.876Z,95854.86
2022-11-15T15:07:54.118Z,95851.20
2022-11-15T15:10:40.534Z,95851.48
2022-11-15T15:13:27.120Z,95848.99
2022-11-15T15:15:55.267Z,95846.83
2022-11-15T15:18:23.146Z,95849.73
2022-11-15T15:21:01.165Z,95845.45
2022-11-15T15:23:32.052Z,95846.05
2022-11-15T15:26:00.353Z,95844.14
2022-11-15T15:28:33.071Z,95847.44
2022-11-15T15:31:03.395Z,95845.36
2022-11-15T15:33:31.736Z,95838.32
2022-11-15T15:36:00.373Z,95837.23
2022-11-15T15:38:28.511Z,95840.10
2022-11-15T15:40:56.675Z,95837.23
2022-11-15T15:43:24.717Z,95839.52
2022-11-15T15:45:52.684Z,95839.48
2022-11-15T15:48:20.626Z,95836.21
2022-11-15T15:50:50.183Z,95838.21
2022-11-15T15:53:18.403Z,95838.51
2022-11-15T15:55:46.482Z,95838.45
2022-11-15T15:58:14.376Z,95836.34
2022-11-15T16:00:42.376Z,95837.90
2022-11-15T16:03:10.470Z,95831.07
2022-11-15T16:05:38.517Z,95825.34
2022-11-15T16:08:06.554Z,95820.14
2022-11-15T16:10:35.549Z,95822.98
2022-11-15T16:13:04.099Z,95828.66
2022-11-15T16:15:32.768Z,95825.28
2022-11-15T16:18:02.299Z,95819.35
2022-11-15T16:20:43.605Z,95814.23
2022-11-15T16:23:18.083Z,95812.19
2022-11-15T16:25:50.669Z,95806.20
2022-11-15T16:28:21.828Z,95795.95
2022-11-15T16:30:59.707Z,95798.98
2022-11-15T16:33:27.745Z,95803.44
2022-11-15T16:35:55.767Z,95803.87
2022-11-15T16:38:23.963Z,95800.87
2022-11-15T16:40:51.848Z,95793.01
2022-11-15T16:43:19.998Z,95788.80
2022-11-15T16:45:49.054Z,95787.57
2022-11-15T16:48:26.356Z,95785.83
2022-11-15T16:50:59.336Z,95778.59
2022-11-15T16:53:28.223Z,95773.73
2022-11-15T16:55:56.488Z,95773.34
2022-11-15T16:58:25.174Z,95772.25
2022-11-15T17:00:55.161Z,95774.05
2022-11-15T17:03:24.477Z,95777.48
2022-11-15T17:05:53.053Z,95780.58
2022-11-15T17:08:22.166Z,95775.64
2022-11-15T17:10:51.041Z,95769.64
2022-11-15T17:13:19.076Z,95765.52
2022-11-15T17:15:47.191Z,95763.39
2022-11-15T17:18:15.814Z,95763.10
2022-11-15T17:20:44.491Z,95761.73
2022-11-15T17:23:14.774Z,95756.60
2022-11-15T17:25:43.308Z,95757.39
2022-11-15T17:28:11.444Z,95760.75
2022-11-15T17:30:43.443Z,95760.38
2022-11-15T17:33:11.534Z,95753.16
2022-11-15T17:35:39.464Z,95743.84
2022-11-15T17:38:07.328Z,95737.17
2022-11-15T17:40:35.347Z,95737.52
2022-11-15T17:43:05.885Z,95748.80
2022-11-15T17:45:34.229Z,95742.15
2022-11-15T17:48:02.171Z,95730.41
2022-11-15T17:50:30.078Z,95726.05
2022-11-15T17:53:00.373Z,95723.58
2022-11-15T17:55:28.285Z,95718.46
2022-11-15T17:57:56.199Z,95709.38
2022-11-15T18:00:24.165Z,95702.18
2022-11-15T18:02:52.121Z,95705.14
2022-11-15T18:05:20.053Z,95715.89
2022-11-15T18:07:47.987Z,95720.81
2022-11-15T18:10:15.995Z,95725.23
2022-11-15T18:12:43.893Z,95724.87
2022-11-15T18:15:11.860Z,95724.69
2022-11-15T18:17:39.765Z,95722.92
2022-11-15T18:20:08.391Z,95725.52
2022-11-15T18:22:36.404Z,95724.00
2022-11-15T18:25:05.274Z,95723.23
2022-11-15T18:27:33.338Z,95723.97
2022-11-15T18:30:01.179Z,95724.73
2022-11-15T18:32:29.276Z,95723.57
2022-11-15T18:34:57.165Z,95723.40
2022-11-15T18:37:25.491Z,95721.05
2022-11-15T18:39:54.280Z,95721.27
2022-11-15T18:42:22.287Z,95715.86
2022-11-15T18:44:50.288Z,95716.30
2022-11-15T18:47:18.116Z,95707.75
2022-11-15T18:49:46.019Z,95704.71
2022-11-15T18:52:13.992Z,95699.26
2022-11-15T18:54:41.975Z,95693.13
2022-11-15T18:57:09.898Z,95696.27
2022-11-15T18:59:38.535Z,95700.50
2022-11-15T19:02:06.534Z,95698.92
2022-11-15T19:04:34.515Z,95700.06
2022-11-15T19:07:02.553Z,95695.77
2022-11-15T19:09:32.972Z,95693.48
2022-11-15T19:12:01.147Z,95690.07
2022-11-15T19:14:29.552Z,95683.85
2022-11-15T19:16:57.584Z,95678.27
2022-11-15T19:19:28.519Z,95672.58
2022-11-15T19:21:57.702Z,95673.73
2022-11-15T19:24:27.357Z,95687.27
2022-11-15T19:26:55.524Z,95692.46
2022-11-15T19:29:23.477Z,95695.37
2022-11-15T19:31:51.480Z,95694.52
2022-11-15T19:34:19.589Z,95692.60
2022-11-15T19:36:47.621Z,95679.13
2022-11-15T19:39:18.179Z,95673.23
2022-11-15T19:41:48.631Z,95671.33
2022-11-15T19:44:16.667Z,95675.02
2022-11-15T19:46:44.639Z,95676.79
2022-11-15T19:49:12.777Z,95675.71
2022-11-15T19:51:42.744Z,95675.50
2022-11-15T19:54:11.691Z,95669.72
2022-11-15T19:56:42.520Z,95667.29
2022-11-15T19:59:12.081Z,95664.11
2022-11-15T20:01:40.479Z,95649.75
2022-11-15T20:04:10.317Z,95642.85
2022-11-15T20:06:43.136Z,95648.77
2022-11-15T20:09:16.694Z,95649.90
2022-11-15T20:11:45.012Z,95640.38
2022-11-15T20:14:14.453Z,95639.16
2022-11-15T20:16:42.726Z,95637.71
2022-11-15T20:19:12.550Z,95647.21
2022-11-15T20:21:40.778Z,95653.70
2022-11-15T20:24:09.536Z,95648.65
2022-11-15T20:26:37.642Z,95644.19
2022-11-15T20:29:06.907Z,95638.30
2022-11-15T20:31:35.121Z,95628.10
2022-11-15T20:34:03.101Z,95624.00
2022-11-15T20:36:31.179Z,95627.48
2022-11-15T20:38:59.749Z,95632.69
2022-11-15T20:41:28.311Z,95633.62
2022-11-15T20:43:56.477Z,95630.11
2022-11-15T20:46:24.408Z,95628.98
2022-11-15T20:48:52.386Z,95625.05
2022-11-15T20:51:20.929Z,95628.09
2022-11-15T20:53:49.346Z,95621.41
2022-11-15T20:56:21.902Z,95619.18
2022-11-15T20:58:50.718Z,95617.05
2022-11-15T21:01:23.928Z,95618.73
2022-11-15T21:03:53.617Z,95618.92
2022-11-15T21:06:23.087Z,95611.80
2022-11-15T21:09:11.282Z,95608.54
2022-11-15T21:11:58.476Z,95614.62
2022-11-15T21:14:26.530Z,95613.46
2022-11-15T21:16:54.518Z,95610.01
2022-11-15T21:19:28.110Z,95606.46
2022-11-15T21:22:01.575Z,95596.21
2022-11-15T21:24:30.232Z,95593.17
2022-11-15T21:26:59.099Z,95584.48
2022-11-15T21:29:28.710Z,95577.54
2022-11-15T21:31:57.360Z,95570.77
2022-11-15T21:34:25.394Z,95573.41
2022-11-15T21:36:53.273Z,95573.02
2022-11-15T21:39:21.332Z,95565.51
2022-11-15T21:41:49.306Z,95570.75
2022-11-15T21:44:17.379Z,95565.51
2022-11-15T21:46:45.251Z,95561.71
2022-11-15T21:49:13.360Z,95559.05
2022-11-15T21:51:41.865Z,95552.00
2022-11-15T21:54:09.925Z,95547.28
2022-11-15T21:56:37.995Z,95543.25
2022-11-15T21:59:06.036Z,95541.53
2022-11-15T22:01:52.567Z,95542.91
2022-11-15T22:04:21.635Z,95542.78
2022-11-15T22:06:50.988Z,95542.45
2022-11-15T22:09:18.959Z,95535.63
2022-11-15T22:11:46.840Z,95537.13
2022-11-15T22:14:14.933Z,95540.66
2022-11-15T22:16:42.746Z,95536.27
2022-11-15T22:19:10.674Z,95540.13
2022-11-15T22:21:40.034Z,95536.49
2022-11-15T22:24:08.309Z,95527.30
2022-11-15T22:26:36.366Z,95529.47
2022-11-15T22:29:04.643Z,95533.15
2022-11-15T22:31:32.649Z,95530.85
2022-11-15T22:34:00.803Z,95525.93
2022-11-15T22:36:42.447Z,95522.52
2022-11-15T22:39:15.495Z,95519.08
2022-11-15T22:41:43.633Z,95515.96
2022-11-15T22:44:11.729Z,95520.80
2022-11-15T22:46:39.670Z,95524.25
2022-11-15T22:49:09.276Z,95522.52
2022-11-15T22:51:39.142Z,95519.98
2022-11-15T22:54:07.849Z,95516.84
2022-11-15T22:56:35.881Z,95506.34
2022-11-15T22:59:03.850Z,95492.77
2022-11-15T23:01:31.878Z,95490.50
2022-11-15T23:03:59.915Z,95496.84
2022-11-15T23:06:28.072Z,95487.02
2022-11-15T23:08:56.173Z,95482.66
2022-11-15T23:11:42.821Z,95483.34
2022-11-15T23:14:10.902Z,95475.56
2022-11-15T23:16:39.873Z,95478.56
2022-11-15T23:19:10.481Z,95472.17
2022-11-15T23:22:05.066Z,95471.42
2022-11-15T23:24:33.916Z,95465.25
2022-11-15T23:27:06.470Z,95464.02
2022-11-15T23:29:56.150Z,95464.60
2022-11-15T23:32:42.880Z,95466.95
2022-11-15T23:35:10.963Z,95461.77
2022-11-15T23:37:38.972Z,95457.44
2022-11-15T23:40:08.224Z,95450.52
2022-11-15T23:42:36.743Z,95442.60
2022-11-15T23:45:05.242Z,95439.98
2022-11-15T23:47:33.240Z,95431.92
2022-11-15T23:50:01.225Z,95426.27
2022-11-15T23:52:29.241Z,95430.28
2022-11-15T23:54:57.282Z,95431.44
2022-11-15T23:57:25.348Z,95434.41
2022-11-15T23:59:53.722Z,95436.73
